Time;durP1;ratioP1;P1;durP2;ratioP2;P2;SDS_P1;SDS_P2;PMS_P1;PMS_P2;Temp;Humidity;BMP_temperature;BMP_pressure;BME280_temperature;BME280_humidity;BME280_pressure;Samples;Min_cycle;Max_cycle;Signal;HPM_P1;HPM_P2
2023/04/17 00:00:36;;;;;;;30.90;17.20;;;;;;;7.57;85.43;100564.59;4222494;28;20308;-63
2023/04/17 00:03:03;;;;;;;29.17;16.43;;;;;;;7.54;85.85;100567.53;4218627;28;20229;-64
2023/04/17 00:05:30;;;;;;;28.67;16.17;;;;;;;7.53;85.93;100565.81;4212600;28;26099;-63
2023/04/17 00:07:58;;;;;;;30.73;16.03;;;;;;;7.51;86.15;100562.41;4221520;28;20351;-63
2023/04/17 00:10:25;;;;;;;31.63;16.30;;;;;;;7.67;85.43;100564.72;4226503;28;21176;-63
2023/04/17 00:12:52;;;;;;;29.87;16.33;;;;;;;7.74;84.74;100557.81;4209627;28;20296;-61
2023/04/17 00:15:18;;;;;;;31.77;15.83;;;;;;;7.68;85.23;100558.34;4234708;28;20239;-64
2023/04/17 00:17:45;;;;;;;29.97;16.63;;;;;;;7.68;85.02;100563.72;4231042;28;20467;-62
2023/04/17 00:20:12;;;;;;;28.50;15.83;;;;;;;7.56;85.21;100557.50;4219721;28;22678;-64
2023/04/17 00:22:38;;;;;;;30.70;16.40;;;;;;;7.70;85.13;100563.59;4229040;28;20382;-63
2023/04/17 00:25:05;;;;;;;32.13;16.43;;;;;;;7.65;85.21;100563.97;4231206;28;20266;-63
2023/04/17 00:27:32;;;;;;;32.73;16.80;;;;;;;7.40;86.51;100571.34;4223929;28;20303;-64
2023/04/17 00:29:59;;;;;;;34.80;16.40;;;;;;;7.37;86.69;100565.34;4229196;28;20239;-64
2023/04/17 00:32:25;;;;;;;33.37;17.57;;;;;;;7.43;86.49;100562.19;4229235;28;21272;-66
2023/04/17 00:34:52;;;;;;;33.10;17.30;;;;;;;7.45;86.34;100561.06;4228276;28;20275;-63
2023/04/17 00:37:21;;;;;;;27.17;15.20;;;;;;;7.56;85.86;100560.19;4232992;28;20233;-64
2023/04/17 00:39:47;;;;;;;31.30;16.83;;;;;;;7.57;85.70;100566.44;4226357;28;20928;-64
2023/04/17 00:42:14;;;;;;;27.17;15.00;;;;;;;7.60;85.41;100567.03;4209271;28;20508;-65
2023/04/17 00:44:40;;;;;;;29.27;16.13;;;;;;;7.52;85.85;100571.34;4218001;28;20244;-64
2023/04/17 00:47:07;;;;;;;31.67;15.63;;;;;;;7.68;85.45;100577.19;4227197;28;20409;-64
2023/04/17 00:49:34;;;;;;;30.20;15.00;;;;;;;7.60;85.61;100585.88;4198408;28;20252;-64
2023/04/17 00:52:01;;;;;;;29.27;15.63;;;;;;;7.60;85.72;100579.66;4225592;28;20320;-63
2023/04/17 00:54:28;;;;;;;35.13;16.90;;;;;;;7.47;86.05;100585.19;4195094;28;20351;-64
2023/04/17 00:56:55;;;;;;;29.50;16.50;;;;;;;7.48;86.32;100583.34;4226596;28;26096;-62
2023/04/17 00:59:22;;;;;;;34.10;16.50;;;;;;;7.40;86.46;100573.19;4221927;28;20301;-63
2023/04/17 01:01:49;;;;;;;30.53;16.23;;;;;;;7.35;86.74;100576.25;4220769;28;20249;-65
2023/04/17 01:04:16;;;;;;;31.83;16.30;;;;;;;7.51;86.37;100589.34;4208457;28;20323;-65
2023/04/17 01:06:42;;;;;;;32.97;16.60;;;;;;;7.40;86.43;100586.66;4219295;28;20245;-64
2023/04/17 01:09:10;;;;;;;35.03;17.37;;;;;;;7.44;86.54;100588.97;4225589;28;25002;-63
2023/04/17 01:11:38;;;;;;;30.77;16.50;;;;;;;7.37;87.01;100592.28;4212090;28;22299;-64
2023/04/17 01:14:04;;;;;;;33.20;16.43;;;;;;;7.56;86.22;100583.56;4229583;28;20227;-63
2023/04/17 01:16:31;;;;;;;34.60;18.30;;;;;;;7.58;85.99;100581.63;4221638;28;20252;-62
2023/04/17 01:18:58;;;;;;;32.83;18.60;;;;;;;7.53;86.18;100591.91;4226473;28;21335;-63
2023/04/17 01:21:25;;;;;;;34.97;18.40;;;;;;;7.64;85.66;100585.66;4225134;28;20306;-63
2023/04/17 01:23:51;;;;;;;39.93;19.17;;;;;;;7.69;85.41;100581.63;4224812;28;20610;-63
2023/04/17 01:26:22;;;;;;;38.40;19.80;;;;;;;7.44;86.28;100585.41;4222387;28;20510;-65
2023/04/17 01:28:58;;;;;;;38.00;20.90;;;;;;;7.37;86.88;100582.38;4222790;28;20233;-64
2023/04/17 01:31:26;;;;;;;36.47;18.83;;;;;;;7.26;87.34;100583.22;4229985;28;20235;-62
2023/04/17 01:33:53;;;;;;;37.47;18.63;;;;;;;7.32;87.35;100581.91;4214841;28;22973;-63
2023/04/17 01:36:19;;;;;;;36.87;18.13;;;;;;;7.41;87.03;100591.91;4230138;28;20235;-63
2023/04/17 01:38:46;;;;;;;38.00;17.93;;;;;;;7.39;86.86;100590.31;4225572;28;20775;-65
2023/04/17 01:41:12;;;;;;;37.43;18.90;;;;;;;7.42;86.89;100582.84;4219607;28;21139;-65
2023/04/17 01:43:41;;;;;;;33.20;18.47;;;;;;;7.42;86.80;100587.41;4227408;28;20328;-61
2023/04/17 01:46:08;;;;;;;33.03;17.63;;;;;;;7.43;86.81;100587.25;4224250;28;20266;-63
2023/04/17 01:48:35;;;;;;;36.53;19.27;;;;;;;7.44;86.97;100594.38;4222472;28;20246;-65
2023/04/17 01:51:03;;;;;;;33.63;17.33;;;;;;;7.38;87.02;100584.09;4228169;28;20423;-63
2023/04/17 01:53:30;;;;;;;32.60;18.17;;;;;;;7.43;87.07;100589.13;4223996;28;20243;-62
2023/04/17 01:55:56;;;;;;;36.40;18.07;;;;;;;7.31;87.34;100593.66;4213782;28;21145;-62
2023/04/17 01:58:23;;;;;;;34.03;17.23;;;;;;;7.37;87.35;100598.53;4212520;28;20315;-64
2023/04/17 02:00:50;;;;;;;31.33;16.50;;;;;;;7.39;87.46;100595.72;4229000;28;21972;-62
2023/04/17 02:03:17;;;;;;;32.23;17.47;;;;;;;7.34;87.35;100596.06;4220920;28;21875;-62
2023/04/17 02:05:47;;;;;;;31.30;16.90;;;;;;;7.25;88.05;100600.38;4225441;28;20592;-64
2023/04/17 02:08:14;;;;;;;34.53;17.70;;;;;;;7.25;87.85;100597.66;4215346;28;20232;-62
2023/04/17 02:10:41;;;;;;;36.57;18.47;;;;;;;7.28;87.51;100596.56;4222402;28;22927;-63
2023/04/17 02:13:08;;;;;;;32.43;17.47;;;;;;;7.20;88.07;100599.00;4224382;28;20308;-63
2023/04/17 02:15:38;;;;;;;33.43;17.43;;;;;;;7.26;87.82;100595.81;4220909;28;20612;-66
2023/04/17 02:18:05;;;;;;;33.57;16.90;;;;;;;7.29;88.03;100598.28;4225903;28;20244;-64
2023/04/17 02:20:32;;;;;;;32.77;18.33;;;;;;;7.23;88.25;100601.47;4219665;28;20339;-64
2023/04/17 02:23:00;;;;;;;35.37;17.90;;;;;;;7.28;87.61;100604.66;4222835;28;20236;-63
2023/04/17 02:25:27;;;;;;;33.77;17.03;;;;;;;7.24;88.06;100600.50;4224206;28;21110;-63
2023/04/17 02:27:55;;;;;;;33.57;18.03;;;;;;;7.35;87.48;100603.19;4213993;28;20322;-65
2023/04/17 02:30:25;;;;;;;33.57;17.83;;;;;;;7.40;87.17;100602.81;4223289;28;20318;-64
2023/04/17 02:32:52;;;;;;;32.73;17.33;;;;;;;7.37;87.35;100598.53;4223681;28;20402;-64
2023/04/17 02:35:20;;;;;;;36.10;17.10;;;;;;;7.48;87.01;100596.81;4221371;28;20237;-64
2023/04/17 02:37:47;;;;;;;31.87;16.70;;;;;;;7.43;86.91;100610.66;4225236;28;20235;-65
2023/04/17 02:40:15;;;;;;;29.20;15.93;;;;;;;7.43;86.86;100611.50;4239751;28;20253;-63
2023/04/17 02:42:41;;;;;;;29.83;17.20;;;;;;;7.28;87.48;100604.66;4217935;28;20345;-61
2023/04/17 02:45:09;;;;;;;30.97;16.77;;;;;;;7.27;87.89;100608.31;4226279;28;20227;-64
2023/04/17 02:47:36;;;;;;;35.90;18.20;;;;;;;7.22;87.83;100608.66;4220376;28;22105;-65
2023/04/17 02:50:04;;;;;;;35.07;18.20;;;;;;;7.28;87.69;100605.53;4225636;28;20522;-64
2023/04/17 02:52:32;;;;;;;31.80;17.87;;;;;;;7.31;87.30;100615.19;4213503;28;20235;-62
2023/04/17 02:54:59;;;;;;;35.47;17.83;;;;;;;7.14;88.39;100613.81;4225617;28;20661;-62
2023/04/17 02:57:25;;;;;;;34.80;17.80;;;;;;;7.12;88.13;100607.72;4230346;28;20235;-64
2023/04/17 02:59:52;;;;;;;35.57;17.67;;;;;;;7.14;88.32;100611.13;4224369;28;20254;-63
2023/04/17 03:02:22;;;;;;;40.23;17.93;;;;;;;7.06;88.71;100610.88;4220150;28;21213;-65
2023/04/17 03:04:49;;;;;;;39.40;19.07;;;;;;;6.99;89.15;100615.88;4226584;28;22008;-63
2023/04/17 03:07:19;;;;;;;36.30;18.10;;;;;;;6.98;89.32;100609.66;4224868;28;20231;-64
2023/04/17 03:09:46;;;;;;;38.40;18.23;;;;;;;7.01;89.40;100622.00;4226578;28;20313;-65
2023/04/17 03:12:13;;;;;;;37.53;18.77;;;;;;;7.05;89.19;100620.78;4225276;28;20319;-63
2023/04/17 03:14:40;;;;;;;35.43;18.13;;;;;;;7.16;88.86;100616.41;4212538;28;20495;-64
2023/04/17 03:17:08;;;;;;;34.77;17.50;;;;;;;7.29;88.33;100626.06;4206064;28;21157;-63
2023/04/17 03:19:35;;;;;;;41.00;18.57;;;;;;;7.12;88.82;100623.84;4203910;28;20228;-63
2023/04/17 03:22:02;;;;;;;33.13;17.63;;;;;;;7.21;88.65;100633.91;4212048;28;20235;-64
2023/04/17 03:24:28;;;;;;;35.10;17.80;;;;;;;7.29;88.34;100635.97;4218182;28;21863;-62
2023/04/17 03:26:55;;;;;;;38.50;18.07;;;;;;;7.32;88.13;100635.75;4196284;28;22312;-65
2023/04/17 03:29:22;;;;;;;36.47;17.70;;;;;;;7.23;88.39;100636.47;4208019;28;20246;-65
2023/04/17 03:31:48;;;;;;;36.43;18.03;;;;;;;7.30;88.10;100635.00;4197719;28;20249;-63
2023/04/17 03:34:16;;;;;;;33.97;17.60;;;;;;;7.39;87.52;100636.97;4206088;28;20236;-63
2023/04/17 03:36:43;;;;;;;37.20;17.70;;;;;;;7.38;87.51;100631.69;4205744;28;20567;-63
2023/04/17 03:39:10;;;;;;;38.10;18.23;;;;;;;7.36;87.72;100639.91;4204583;28;21081;-64
2023/04/17 03:41:37;;;;;;;31.83;16.73;;;;;;;7.37;88.02;100644.31;4207494;28;22862;-65
2023/04/17 03:44:04;;;;;;;32.53;17.40;;;;;;;7.42;87.61;100636.72;4209053;28;20295;-64
2023/04/17 03:46:31;;;;;;;34.07;17.43;;;;;;;7.39;87.88;100641.50;4208450;28;20287;-64
2023/04/17 03:48:57;;;;;;;35.80;16.93;;;;;;;7.50;87.51;100641.50;4207446;28;21271;-63
2023/04/17 03:51:26;;;;;;;36.07;17.20;;;;;;;7.43;87.70;100646.53;4206490;28;20374;-62
2023/04/17 03:53:52;;;;;;;30.87;16.70;;;;;;;7.40;87.69;100635.97;4211952;28;20581;-63
2023/04/17 03:56:19;;;;;;;35.20;17.70;;;;;;;7.44;87.88;100652.75;4210170;28;20283;-65
2023/04/17 03:58:45;;;;;;;34.13;18.00;;;;;;;7.38;87.86;100654.13;4202555;28;20235;-65
2023/04/17 04:01:13;;;;;;;33.70;16.73;;;;;;;7.30;88.34;100659.25;4205175;28;20730;-63
2023/04/17 04:03:40;;;;;;;34.67;17.10;;;;;;;7.41;88.36;100655.69;4208132;28;20637;-64
2023/04/17 04:06:07;;;;;;;34.57;16.80;;;;;;;7.46;87.75;100656.19;4208956;28;20254;-63
2023/04/17 04:08:33;;;;;;;34.87;17.03;;;;;;;7.50;88.03;100660.38;4214165;28;20313;-65
2023/04/17 04:11:00;;;;;;;36.30;17.27;;;;;;;7.55;87.49;100660.84;4210686;28;21924;-65
2023/04/17 04:13:27;;;;;;;28.73;15.77;;;;;;;7.49;87.52;100658.66;4198403;28;20945;-64
2023/04/17 04:15:54;;;;;;;33.03;17.07;;;;;;;7.51;87.67;100674.69;4215476;28;20448;-63
2023/04/17 04:18:20;;;;;;;32.30;16.40;;;;;;;7.63;87.66;100679.09;4232307;28;20237;-63
2023/04/17 04:20:47;;;;;;;32.23;16.40;;;;;;;7.58;86.99;100679.47;4224888;28;20731;-64
2023/04/17 04:23:15;;;;;;;34.77;16.70;;;;;;;7.67;87.21;100683.25;4215492;28;21643;-65
2023/04/17 04:25:42;;;;;;;32.20;16.47;;;;;;;7.52;87.59;100681.78;4230409;28;20235;-65
2023/04/17 04:28:09;;;;;;;29.77;15.80;;;;;;;7.51;87.33;100678.25;4230106;28;20231;-64
2023/04/17 04:30:37;;;;;;;32.07;16.10;;;;;;;7.60;87.06;100685.56;4218047;28;20425;-64
2023/04/17 04:33:04;;;;;;;33.33;16.40;;;;;;;7.65;86.71;100681.69;4223617;28;20292;-62
2023/04/17 04:35:31;;;;;;;32.17;16.23;;;;;;;7.54;87.13;100686.06;4226173;28;24040;-66
2023/04/17 04:38:01;;;;;;;30.13;15.47;;;;;;;7.74;86.84;100691.72;4225812;28;20231;-64
2023/04/17 04:40:29;;;;;;;31.13;15.03;;;;;;;7.65;86.36;100701.38;4230699;28;21868;-65
2023/04/17 04:42:56;;;;;;;33.33;15.93;;;;;;;7.64;86.67;100691.56;4206388;28;20285;-63
2023/04/17 04:45:22;;;;;;;31.43;15.40;;;;;;;7.64;86.63;100694.28;4230270;28;21774;-64
2023/04/17 04:47:49;;;;;;;29.47;15.77;;;;;;;7.72;86.39;100694.53;4228903;28;20645;-64
2023/04/17 04:50:16;;;;;;;31.27;15.50;;;;;;;7.61;86.27;100694.53;4231633;28;20434;-64
2023/04/17 04:52:43;;;;;;;30.20;15.83;;;;;;;7.53;86.98;100705.91;4226645;28;20762;-65
2023/04/17 04:55:11;;;;;;;27.23;15.07;;;;;;;7.69;86.38;100699.28;4229388;28;20236;-65
2023/04/17 04:57:38;;;;;;;29.67;15.67;;;;;;;7.69;86.29;100702.00;4235172;28;24196;-67
2023/04/17 05:00:06;;;;;;;30.20;15.53;;;;;;;7.73;86.12;100698.09;4227956;28;20236;-64
2023/04/17 05:02:33;;;;;;;34.47;14.37;;;;;;;7.78;85.69;100699.41;4233993;28;20240;-64
2023/04/17 05:05:00;;;;;;;30.87;16.83;;;;;;;7.69;86.00;100694.78;4244001;28;20650;-64
2023/04/17 05:07:27;;;;;;;29.80;15.90;;;;;;;7.63;86.64;100702.50;4230702;28;20282;-64
2023/04/17 05:09:54;;;;;;;31.60;16.40;;;;;;;7.71;86.22;100694.66;4231556;28;20770;-65
2023/04/17 05:12:20;;;;;;;29.53;15.33;;;;;;;7.68;86.30;100697.56;4239899;28;21768;-63
2023/04/17 05:14:47;;;;;;;31.90;15.87;;;;;;;7.74;86.23;100703.34;4240770;28;20997;-65
2023/04/17 05:17:14;;;;;;;27.23;15.70;;;;;;;7.64;86.49;100707.75;4229521;28;20430;-65
2023/04/17 05:19:41;;;;;;;29.30;14.57;;;;;;;7.68;86.70;100698.47;4222393;28;25433;-62
2023/04/17 05:22:08;;;;;;;27.50;15.10;;;;;;;7.76;86.66;100700.53;4230830;28;20474;-68
2023/04/17 05:24:35;;;;;;;37.77;16.87;;;;;;;7.71;86.30;100703.59;4230508;28;23560;-68
2023/04/17 05:27:02;;;;;;;33.57;16.10;;;;;;;7.82;85.84;100709.97;4230252;28;20243;-70
2023/04/17 05:29:31;;;;;;;31.63;15.60;;;;;;;7.88;85.49;100704.06;4237161;28;20986;-67
2023/04/17 05:31:58;;;;;;;29.83;16.10;;;;;;;7.89;85.25;100711.19;4229880;28;20621;-67
2023/04/17 05:34:24;;;;;;;32.47;16.37;;;;;;;7.87;85.60;100710.44;4236127;28;20232;-68
2023/04/17 05:36:51;;;;;;;30.00;16.07;;;;;;;8.01;84.85;100712.88;4221825;28;20238;-67
2023/04/17 05:39:18;;;;;;;29.73;15.10;;;;;;;7.92;85.15;100711.78;4228104;28;20662;-67
2023/04/17 05:41:44;;;;;;;31.23;14.80;;;;;;;7.91;85.26;100710.06;4233330;28;20239;-66
2023/04/17 05:44:11;;;;;;;28.60;14.87;;;;;;;7.97;85.02;100706.03;4210683;28;20304;-68
2023/04/17 05:46:38;;;;;;;29.80;16.37;;;;;;;7.84;85.48;100708.84;4219736;28;20623;-70
2023/04/17 05:49:04;;;;;;;30.40;15.37;;;;;;;7.86;85.54;100712.28;4230440;28;20560;-67
2023/04/17 05:51:31;;;;;;;34.33;15.00;;;;;;;8.00;84.91;100713.00;4238144;28;20303;-67
2023/04/17 05:53:57;;;;;;;28.00;15.47;;;;;;;7.86;85.54;100709.59;4212630;28;20325;-66
2023/04/17 05:56:24;;;;;;;29.50;15.33;;;;;;;7.95;85.31;100710.69;4232600;28;20227;-69
2023/04/17 05:58:51;;;;;;;28.47;15.57;;;;;;;8.07;84.92;100708.84;4205857;28;22277;-67
2023/04/17 06:01:21;;;;;;;31.17;15.67;;;;;;;8.11;84.96;100702.22;4225123;28;20302;-70
2023/04/17 06:03:47;;;;;;;28.80;15.37;;;;;;;8.41;84.05;100706.09;4237218;28;20234;-66
2023/04/17 06:06:14;;;;;;;31.63;16.57;;;;;;;8.56;83.73;100707.53;4226568;28;20252;-69
2023/04/17 06:08:42;;;;;;;29.90;15.53;;;;;;;8.75;82.85;100705.16;4221769;28;20239;-66
2023/04/17 06:11:08;;;;;;;27.50;14.50;;;;;;;8.71;82.50;100713.50;4228151;28;20250;-69
2023/04/17 06:13:35;;;;;;;24.80;14.17;;;;;;;8.63;82.72;100715.97;4215910;28;20231;-67
2023/04/17 06:16:02;;;;;;;29.07;14.53;;;;;;;8.67;82.32;100717.44;4218688;28;20645;-66
2023/04/17 06:18:28;;;;;;;31.50;14.80;;;;;;;8.63;82.44;100723.22;4230095;28;20232;-66
2023/04/17 06:20:55;;;;;;;34.13;15.83;;;;;;;8.56;82.42;100729.13;4217299;28;20246;-66
2023/04/17 06:23:22;;;;;;;29.53;15.27;;;;;;;8.63;82.31;100725.91;4225583;28;20598;-66
2023/04/17 06:25:48;;;;;;;35.57;15.67;;;;;;;8.80;81.83;100727.19;4228363;28;20233;-66
2023/04/17 06:28:15;;;;;;;26.43;14.50;;;;;;;9.12;81.09;100729.03;4232842;28;20245;-68
2023/04/17 06:30:42;;;;;;;32.13;16.37;;;;;;;9.06;80.47;100722.28;4226457;28;20242;-67
2023/04/17 06:33:09;;;;;;;28.93;15.30;;;;;;;9.06;80.13;100733.09;4220054;28;21722;-65
2023/04/17 06:35:36;;;;;;;25.63;14.60;;;;;;;8.92;81.15;100736.13;4242449;28;22073;-65
2023/04/17 06:38:03;;;;;;;34.37;15.83;;;;;;;8.86;81.17;100727.56;4229834;28;20231;-64
2023/04/17 06:40:30;;;;;;;32.87;16.27;;;;;;;9.11;80.82;100730.00;4201583;28;20361;-65
2023/04/17 06:42:56;;;;;;;33.23;17.17;;;;;;;9.43;79.77;100737.19;4223906;28;20309;-64
2023/04/17 06:45:23;;;;;;;34.10;16.60;;;;;;;9.44;79.56;100722.72;4231394;28;21829;-65
2023/04/17 06:47:50;;;;;;;39.03;19.43;;;;;;;9.49;79.43;100734.81;4219707;28;26377;-67
2023/04/17 06:50:17;;;;;;;35.23;17.70;;;;;;;9.57;78.82;100735.97;4226928;28;20281;-63
2023/04/17 06:52:43;;;;;;;34.80;17.73;;;;;;;9.42;78.75;100730.94;4230523;28;20731;-62
2023/04/17 06:55:10;;;;;;;45.03;21.33;;;;;;;9.32;78.93;100740.84;4226460;28;25643;-63
2023/04/17 06:57:37;;;;;;;47.07;20.37;;;;;;;9.50;79.27;100744.63;4206934;28;20411;-65
2023/04/17 07:00:06;;;;;;;41.87;19.67;;;;;;;10.08;78.83;100745.06;4244483;28;20275;-65
2023/04/17 07:02:33;;;;;;;38.00;18.47;;;;;;;10.55;74.89;100749.91;4244724;28;20320;-65
2023/04/17 07:05:00;;;;;;;38.23;19.87;;;;;;;10.56;74.93;100740.81;4216280;28;22282;-65
2023/04/17 07:07:29;;;;;;;36.40;18.07;;;;;;;10.45;74.45;100750.78;4223167;28;20303;-65
2023/04/17 07:09:56;;;;;;;38.13;18.50;;;;;;;10.25;75.59;100749.81;4228576;28;26361;-63
2023/04/17 07:12:22;;;;;;;34.13;18.73;;;;;;;10.67;75.10;100759.63;4230252;28;20234;-62
2023/04/17 07:14:50;;;;;;;42.43;19.17;;;;;;;10.65;74.45;100758.06;4229463;28;20301;-65
2023/04/17 07:17:16;;;;;;;38.67;18.97;;;;;;;10.77;74.41;100755.06;4228819;28;21717;-65
2023/04/17 07:19:43;;;;;;;28.63;15.97;;;;;;;10.66;74.78;100746.22;4220804;28;20665;-67
2023/04/17 07:22:10;;;;;;;34.00;16.83;;;;;;;10.63;74.31;100763.59;4200923;28;20411;-70
2023/04/17 07:24:37;;;;;;;28.87;15.77;;;;;;;10.61;75.10;100762.91;4211364;28;20345;-68
2023/04/17 07:27:05;;;;;;;27.20;15.23;;;;;;;10.98;73.23;100755.94;4209189;28;20493;-69
2023/04/17 07:29:32;;;;;;;34.37;18.53;;;;;;;10.93;73.91;100759.94;4235547;28;21422;-67
2023/04/17 07:31:58;;;;;;;37.90;18.40;;;;;;;11.07;73.52;100769.50;4218168;28;21150;-67
2023/04/17 07:34:25;;;;;;;25.13;14.83;;;;;;;11.00;73.24;100770.22;4233039;28;20232;-67
2023/04/17 07:36:52;;;;;;;32.80;16.60;;;;;;;11.02;73.40;100769.06;4226638;28;20223;-70
2023/04/17 07:39:19;;;;;;;30.87;17.27;;;;;;;10.81;73.93;100771.06;4216156;28;20230;-65
2023/04/17 07:41:47;;;;;;;25.60;14.30;;;;;;;11.23;72.74;100773.47;4228523;28;20231;-65
2023/04/17 07:44:14;;;;;;;29.77;15.33;;;;;;;11.63;72.28;100766.16;4223083;28;20330;-66
2023/04/17 07:46:40;;;;;;;28.20;15.27;;;;;;;11.89;71.47;100769.09;4246373;28;26248;-67
2023/04/17 07:49:07;;;;;;;31.00;15.03;;;;;;;11.63;71.16;100777.84;4234591;28;20239;-63
2023/04/17 07:51:39;;;;;;;37.53;17.60;;;;;;;10.86;73.60;100785.00;4228104;28;20267;-65
2023/04/17 07:54:06;;;;;;;30.37;16.23;;;;;;;10.71;75.09;100780.00;4230409;28;20235;-66
2023/04/17 07:56:33;;;;;;;28.93;16.97;;;;;;;10.80;74.64;100763.91;4225421;28;20239;-67
2023/04/17 07:59:00;;;;;;;27.50;15.87;;;;;;;10.90;74.84;100775.63;4228201;28;24051;-68
2023/04/17 08:01:26;;;;;;;31.07;16.57;;;;;;;10.97;74.67;100776.78;4243115;28;20306;-67
2023/04/17 08:03:54;;;;;;;26.57;14.97;;;;;;;11.32;73.86;100780.75;4235449;28;20236;-66
2023/04/17 08:06:21;;;;;;;28.33;13.93;;;;;;;11.85;72.24;100773.97;4240280;28;20242;-69
2023/04/17 08:08:48;;;;;;;25.13;13.87;;;;;;;11.51;72.04;100777.16;4228693;28;20239;-67
2023/04/17 08:11:14;;;;;;;25.87;14.90;;;;;;;11.36;72.93;100774.06;4247352;28;25570;-65
2023/04/17 08:13:41;;;;;;;28.97;14.73;;;;;;;11.38;73.14;100773.91;4234304;28;20235;-69
2023/04/17 08:16:08;;;;;;;28.13;15.33;;;;;;;11.19;73.77;100783.75;4217973;28;20378;-67
2023/04/17 08:18:36;;;;;;;26.17;14.40;;;;;;;11.38;73.49;100792.88;4237860;28;20241;-68
2023/04/17 08:21:08;;;;;;;27.47;14.77;;;;;;;10.97;74.42;100786.75;4240583;28;20612;-68
2023/04/17 08:23:36;;;;;;;24.00;13.33;;;;;;;10.89;74.94;100798.28;4232489;28;20239;-68
2023/04/17 08:26:03;;;;;;;25.80;14.10;;;;;;;10.94;74.85;100804.13;4229840;28;20251;-66
2023/04/17 08:28:30;;;;;;;23.33;13.80;;;;;;;10.94;75.53;100801.44;4244678;28;20239;-65
2023/04/17 08:30:57;;;;;;;24.13;13.17;;;;;;;10.92;75.58;100796.16;4216689;28;20526;-68
2023/04/17 08:33:24;;;;;;;22.63;13.60;;;;;;;11.05;75.03;100793.19;4250297;28;20263;-67
2023/04/17 08:35:50;;;;;;;30.40;15.23;;;;;;;11.14;74.55;100799.59;4233211;28;20281;-68
2023/04/17 08:38:17;;;;;;;33.97;16.00;;;;;;;11.14;74.75;100796.88;4239191;28;22488;-68
2023/04/17 08:40:50;;;;;;;24.57;13.80;;;;;;;11.30;73.68;100799.00;4228253;28;20593;-67
2023/04/17 08:43:19;;;;;;;26.17;14.07;;;;;;;11.72;72.69;100793.25;4243242;28;20282;-67
2023/04/17 08:45:52;;;;;;;26.93;14.30;;;;;;;11.79;72.62;100803.53;4224319;28;20227;-65
2023/04/17 08:48:20;;;;;;;28.00;15.77;;;;;;;11.66;72.57;100801.97;4237351;28;20303;-67
2023/04/17 08:50:48;;;;;;;30.50;16.23;;;;;;;11.64;72.95;100808.53;4228446;28;21573;-68
2023/04/17 08:53:16;;;;;;;28.40;15.33;;;;;;;11.55;73.22;100797.59;4204425;28;22706;-70
2023/04/17 08:55:44;;;;;;;23.67;13.43;;;;;;;11.62;72.96;100803.25;4263596;28;20228;-66
2023/04/17 08:58:11;;;;;;;26.40;13.30;;;;;;;11.66;73.39;100810.13;4238411;28;20595;-67
2023/04/17 09:00:39;;;;;;;26.57;12.77;;;;;;;11.53;73.23;100812.25;4223252;28;20409;-67
2023/04/17 09:03:09;;;;;;;19.10;11.63;;;;;;;11.55;73.34;100810.25;4223414;28;22943;-71
2023/04/17 09:05:40;;;;;;;26.40;13.30;;;;;;;11.59;73.33;100809.00;4209456;28;20604;-67
2023/04/17 09:08:15;;;;;;;21.57;11.83;;;;;;;11.71;73.25;100818.66;4252430;28;20310;-69
2023/04/17 09:10:47;;;;;;;26.90;14.50;;;;;;;11.97;71.94;100812.63;4231699;28;20250;-68
2023/04/17 09:13:16;;;;;;;29.77;14.87;;;;;;;11.95;72.59;100817.34;4244011;28;20241;-67
2023/04/17 09:15:44;;;;;;;32.67;14.40;;;;;;;12.10;72.40;100806.88;4235031;28;20313;-66
2023/04/17 09:18:29;;;;;;;26.60;11.77;;;;;;;12.42;70.50;100808.31;4244044;28;20381;-66
2023/04/17 09:20:58;;;;;;;21.57;11.17;;;;;;;12.69;69.95;100817.44;4215037;28;20257;-67
2023/04/17 09:23:26;;;;;;;21.47;11.33;;;;;;;12.58;69.46;100821.22;4220080;28;22508;-68
2023/04/17 09:26:13;;;;;;;25.57;11.80;;;;;;;12.54;69.52;100817.13;4230853;28;20344;-65
2023/04/17 09:28:40;;;;;;;21.87;12.33;;;;;;;12.05;71.51;100818.16;4245991;28;20383;-66
2023/04/17 09:31:18;;;;;;;20.83;11.40;;;;;;;11.97;71.36;100822.63;4232383;28;20757;-67
2023/04/17 09:34:06;;;;;;;23.90;11.80;;;;;;;11.85;71.77;100822.78;4221184;28;20243;-67
2023/04/17 09:36:35;;;;;;;27.93;13.20;;;;;;;11.64;72.63;100822.09;4224143;28;20584;-67
2023/04/17 09:39:04;;;;;;;26.87;13.47;;;;;;;11.51;73.60;100834.09;4242594;28;20235;-65
2023/04/17 09:41:38;;;;;;;23.33;13.23;;;;;;;11.61;73.46;100830.53;4226722;28;20246;-65
2023/04/17 09:44:05;;;;;;;33.10;12.23;;;;;;;11.82;73.23;100830.38;4233166;28;20448;-70
2023/04/17 09:46:39;;;;;;;24.60;12.80;;;;;;;12.01;71.80;100832.19;4221054;28;20402;-66
2023/04/17 09:49:29;;;;;;;22.80;11.63;;;;;;;12.13;71.56;100831.00;4244725;28;20505;-72
2023/04/17 09:51:56;;;;;;;20.97;11.37;;;;;;;12.23;70.95;100838.28;4219699;28;20313;-66
2023/04/17 09:54:24;;;;;;;25.47;12.00;;;;;;;12.24;70.73;100834.53;4245715;28;20489;-68
2023/04/17 09:56:54;;;;;;;21.77;12.10;;;;;;;12.07;70.89;100833.44;4235151;28;21242;-69
2023/04/17 09:59:23;;;;;;;23.47;11.80;;;;;;;12.23;70.88;100825.53;4238001;28;20227;-65
2023/04/17 10:01:52;;;;;;;19.97;12.00;;;;;;;12.66;68.94;100828.63;4260604;28;20587;-67
2023/04/17 10:04:20;;;;;;;18.30;11.33;;;;;;;12.99;68.05;100824.44;4242083;28;20249;-67
2023/04/17 10:06:48;;;;;;;21.43;11.00;;;;;;;13.25;67.02;100820.97;4247453;28;20437;-68
2023/04/17 10:09:15;;;;;;;20.07;10.87;;;;;;;13.40;66.27;100820.44;4235453;28;20246;-67
2023/04/17 10:11:43;;;;;;;22.57;11.00;;;;;;;13.35;66.33;100828.16;4220782;28;21272;-67
2023/04/17 10:14:14;;;;;;;19.50;10.50;;;;;;;13.42;65.25;100826.56;4238264;28;20365;-65
2023/04/17 10:16:42;;;;;;;20.43;10.93;;;;;;;13.34;66.20;100835.47;4218731;28;20410;-66
2023/04/17 10:19:29;;;;;;;21.17;10.43;;;;;;;12.96;67.17;100832.03;4222421;28;20238;-64
2023/04/17 10:22:14;;;;;;;18.00;10.73;;;;;;;12.95;67.29;100833.88;4239312;28;20798;-67
2023/04/17 10:24:41;;;;;;;18.10;10.80;;;;;;;12.86;67.65;100831.22;4224470;28;20568;-67
2023/04/17 10:27:31;;;;;;;19.43;10.40;;;;;;;12.42;68.60;100831.91;4244212;28;20230;-67
2023/04/17 10:30:00;;;;;;;22.07;11.77;;;;;;;12.49;68.67;100835.75;4225461;28;20301;-70
2023/04/17 10:32:27;;;;;;;23.10;12.17;;;;;;;12.68;68.76;100826.63;4236715;28;21337;-67
2023/04/17 10:35:03;;;;;;;19.73;11.17;;;;;;;12.96;68.12;100830.16;4243065;28;20231;-69
2023/04/17 10:38:03;;;;;;;22.87;11.47;;;;;;;12.89;67.55;100828.22;4211435;28;20264;-67
2023/04/17 10:40:32;;;;;;;22.47;11.03;;;;;;;13.14;67.73;100832.88;4232050;28;20339;-70
2023/04/17 10:43:03;;;;;;;19.97;10.87;;;;;;;13.27;66.31;100824.34;4232391;28;20231;-67
2023/04/17 10:46:04;;;;;;;21.07;11.33;;;;;;;13.52;66.96;100816.44;4240585;28;20845;-53
2023/04/17 10:48:41;;;;;;;24.63;11.23;;;;;;;13.52;65.15;100821.88;4248516;28;21096;-64
2023/04/17 10:51:20;;;;;;;19.60;10.90;;;;;;;13.38;65.41;100819.69;4212249;28;21789;-65
2023/04/17 10:53:48;;;;;;;18.50;9.73;;;;;;;13.67;65.15;100815.88;4223882;28;20235;-66
2023/04/17 10:56:22;;;;;;;17.10;10.83;;;;;;;13.71;64.77;100820.84;4221845;28;20359;-66
2023/04/17 10:58:56;;;;;;;20.57;10.73;;;;;;;13.71;65.46;100817.28;4240373;28;20223;-66
2023/04/17 11:01:44;;;;;;;22.07;11.23;;;;;;;13.76;64.76;100814.94;4227738;28;20235;-65
2023/04/17 11:04:18;;;;;;;20.53;10.40;;;;;;;13.83;64.43;100816.00;4212085;28;20278;-64
2023/04/17 11:06:45;;;;;;;17.63;9.83;;;;;;;14.02;64.68;100812.22;4220434;28;20286;-65
2023/04/17 11:09:13;;;;;;;17.90;9.33;;;;;;;14.71;63.45;100814.09;4241398;28;21143;-64
2023/04/17 11:11:42;;;;;;;19.70;9.57;;;;;;;14.45;61.84;100816.84;4243922;28;20278;-66
2023/04/17 11:14:19;;;;;;;19.33;9.63;;;;;;;14.54;62.15;100811.25;4265447;28;21424;-67
2023/04/17 11:16:48;;;;;;;17.73;9.47;;;;;;;14.52;61.88;100805.16;4222465;28;20238;-65
2023/04/17 11:19:20;;;;;;;19.50;10.57;;;;;;;14.52;61.88;100809.72;4233415;28;20235;-67